sensor_id;sensor_type;location;lat;lon;timestamp;temperature;humidity
8824;DHT22;4448;50.904;4.694;2023-08-12T00:00:17;22.20;99.90
8824;DHT22;4448;50.904;4.694;2023-08-12T00:02:44;22.10;99.90
8824;DHT22;4448;50.904;4.694;2023-08-12T00:05:10;22.10;99.90
8824;DHT22;4448;50.904;4.694;2023-08-12T00:07:37;22.10;99.90
8824;DHT22;4448;50.904;4.694;2023-08-12T00:10:03;22.00;99.90
8824;DHT22;4448;50.904;4.694;2023-08-12T00:12:31;22.10;99.90
8824;DHT22;4448;50.904;4.694;2023-08-12T00:14:58;22.10;99.90
8824;DHT22;4448;50.904;4.694;2023-08-12T00:17:24;22.00;99.90
8824;DHT22;4448;50.904;4.694;2023-08-12T00:19:50;22.00;99.90
8824;DHT22;4448;50.904;4.694;2023-08-12T00:22:15;22.00;99.90
8824;DHT22;4448;50.904;4.694;2023-08-12T00:24:41;22.00;99.90
8824;DHT22;4448;50.904;4.694;2023-08-12T00:27:07;22.00;99.90
8824;DHT22;4448;50.904;4.694;2023-08-12T00:29:35;22.00;99.90
8824;DHT22;4448;50.904;4.694;2023-08-12T00:32:01;22.00;99.90
8824;DHT22;4448;50.904;4.694;2023-08-12T00:34:27;22.00;99.90
8824;DHT22;4448;50.904;4.694;2023-08-12T00:36:53;22.00;99.90
8824;DHT22;4448;50.904;4.694;2023-08-12T00:39:18;22.00;99.90
8824;DHT22;4448;50.904;4.694;2023-08-12T00:41:44;22.00;99.90
8824;DHT22;4448;50.904;4.694;2023-08-12T00:44:10;21.90;99.90
8824;DHT22;4448;50.904;4.694;2023-08-12T00:46:38;21.90;99.90
8824;DHT22;4448;50.904;4.694;2023-08-12T00:49:05;21.90;99.90
8824;DHT22;4448;50.904;4.694;2023-08-12T00:51:31;21.90;99.90
8824;DHT22;4448;50.904;4.694;2023-08-12T00:53:58;21.90;99.90
8824;DHT22;4448;50.904;4.694;2023-08-12T00:56:26;21.80;99.90
8824;DHT22;4448;50.904;4.694;2023-08-12T00:58:52;21.90;99.90
8824;DHT22;4448;50.904;4.694;2023-08-12T01:01:19;21.80;99.90
8824;DHT22;4448;50.904;4.694;2023-08-12T01:03:45;21.80;99.90
8824;DHT22;4448;50.904;4.694;2023-08-12T01:06:12;21.90;99.90
8824;DHT22;4448;50.904;4.694;2023-08-12T01:08:38;21.60;99.90
8824;DHT22;4448;50.904;4.694;2023-08-12T01:11:21;21.80;99.90
8824;DHT22;4448;50.904;4.694;2023-08-12T01:13:58;21.80;99.90
8824;DHT22;4448;50.904;4.694;2023-08-12T01:16:29;21.80;99.90
8824;DHT22;4448;50.904;4.694;2023-08-12T01:18:56;21.80;99.90
8824;DHT22;4448;50.904;4.694;2023-08-12T01:21:24;21.80;99.90
8824;DHT22;4448;50.904;4.694;2023-08-12T01:23:52;21.50;99.90
8824;DHT22;4448;50.904;4.694;2023-08-12T01:26:18;21.90;99.90
8824;DHT22;4448;50.904;4.694;2023-08-12T01:28:43;21.90;99.90
8824;DHT22;4448;50.904;4.694;2023-08-12T01:31:12;21.80;99.90
8824;DHT22;4448;50.904;4.694;2023-08-12T01:33:46;21.30;99.90
8824;DHT22;4448;50.904;4.694;2023-08-12T01:36:17;21.70;99.90
8824;DHT22;4448;50.904;4.694;2023-08-12T01:38:43;21.80;99.90
8824;DHT22;4448;50.904;4.694;2023-08-12T01:41:10;21.80;99.90
8824;DHT22;4448;50.904;4.694;2023-08-12T01:43:38;21.70;99.90
8824;DHT22;4448;50.904;4.694;2023-08-12T01:46:03;21.70;99.90
8824;DHT22;4448;50.904;4.694;2023-08-12T01:48:29;21.80;99.90
8824;DHT22;4448;50.904;4.694;2023-08-12T01:50:55;21.70;99.90
8824;DHT22;4448;50.904;4.694;2023-08-12T01:53:20;21.90;99.90
8824;DHT22;4448;50.904;4.694;2023-08-12T01:55:49;21.80;99.90
8824;DHT22;4448;50.904;4.694;2023-08-12T01:58:14;21.90;99.90
8824;DHT22;4448;50.904;4.694;2023-08-12T02:00:40;21.80;99.90
8824;DHT22;4448;50.904;4.694;2023-08-12T02:03:06;21.90;99.90
8824;DHT22;4448;50.904;4.694;2023-08-12T02:05:32;21.70;99.90
8824;DHT22;4448;50.904;4.694;2023-08-12T02:07:58;21.80;99.90
8824;DHT22;4448;50.904;4.694;2023-08-12T02:10:24;21.70;99.90
8824;DHT22;4448;50.904;4.694;2023-08-12T02:12:50;21.70;99.90
8824;DHT22;4448;50.904;4.694;2023-08-12T02:15:15;21.70;99.90
8824;DHT22;4448;50.904;4.694;2023-08-12T02:17:41;21.80;99.90
8824;DHT22;4448;50.904;4.694;2023-08-12T02:20:07;21.70;99.90
8824;DHT22;4448;50.904;4.694;2023-08-12T02:22:33;21.60;99.90
8824;DHT22;4448;50.904;4.694;2023-08-12T02:24:58;21.70;99.90
8824;DHT22;4448;50.904;4.694;2023-08-12T02:27:25;21.70;99.90
8824;DHT22;4448;50.904;4.694;2023-08-12T02:29:51;21.70;99.90
8824;DHT22;4448;50.904;4.694;2023-08-12T02:32:16;21.70;99.90
8824;DHT22;4448;50.904;4.694;2023-08-12T02:34:42;21.70;99.90
8824;DHT22;4448;50.904;4.694;2023-08-12T02:37:08;21.70;99.90
8824;DHT22;4448;50.904;4.694;2023-08-12T02:39:33;21.70;99.90
8824;DHT22;4448;50.904;4.694;2023-08-12T02:41:59;21.70;99.90
8824;DHT22;4448;50.904;4.694;2023-08-12T02:44:25;21.60;99.90
8824;DHT22;4448;50.904;4.694;2023-08-12T02:46:50;21.60;99.90
8824;DHT22;4448;50.904;4.694;2023-08-12T02:49:16;21.60;99.90
8824;DHT22;4448;50.904;4.694;2023-08-12T02:51:42;21.30;99.90
8824;DHT22;4448;50.904;4.694;2023-08-12T02:54:07;21.70;99.90
8824;DHT22;4448;50.904;4.694;2023-08-12T02:56:33;21.60;99.90
8824;DHT22;4448;50.904;4.694;2023-08-12T02:58:58;21.70;99.90
8824;DHT22;4448;50.904;4.694;2023-08-12T03:01:24;21.60;99.90
8824;DHT22;4448;50.904;4.694;2023-08-12T03:03:50;21.70;99.90
8824;DHT22;4448;50.904;4.694;2023-08-12T03:06:16;21.40;99.90
8824;DHT22;4448;50.904;4.694;2023-08-12T03:11:08;21.60;99.90
8824;DHT22;4448;50.904;4.694;2023-08-12T03:13:33;21.60;99.90
8824;DHT22;4448;50.904;4.694;2023-08-12T03:15:59;21.80;99.90
8824;DHT22;4448;50.904;4.694;2023-08-12T03:18:25;21.50;99.90
8824;DHT22;4448;50.904;4.694;2023-08-12T03:23:17;21.20;99.90
8824;DHT22;4448;50.904;4.694;2023-08-12T03:25:42;21.60;99.90
8824;DHT22;4448;50.904;4.694;2023-08-12T03:28:08;21.50;99.90
8824;DHT22;4448;50.904;4.694;2023-08-12T03:30:33;21.60;99.90
8824;DHT22;4448;50.904;4.694;2023-08-12T03:32:59;21.50;99.90
8824;DHT22;4448;50.904;4.694;2023-08-12T03:35:25;21.50;99.90
8824;DHT22;4448;50.904;4.694;2023-08-12T03:37:50;21.50;99.90
8824;DHT22;4448;50.904;4.694;2023-08-12T03:40:17;21.50;99.90
8824;DHT22;4448;50.904;4.694;2023-08-12T03:42:43;21.50;99.90
8824;DHT22;4448;50.904;4.694;2023-08-12T03:45:09;21.60;99.90
8824;DHT22;4448;50.904;4.694;2023-08-12T03:47:35;21.70;99.90
8824;DHT22;4448;50.904;4.694;2023-08-12T03:50:01;21.50;99.90
8824;DHT22;4448;50.904;4.694;2023-08-12T03:52:26;21.50;99.90
8824;DHT22;4448;50.904;4.694;2023-08-12T03:54:52;21.50;99.90
8824;DHT22;4448;50.904;4.694;2023-08-12T03:57:18;21.50;99.90
8824;DHT22;4448;50.904;4.694;2023-08-12T03:59:44;21.00;99.90
8824;DHT22;4448;50.904;4.694;2023-08-12T04:02:09;21.50;99.90
8824;DHT22;4448;50.904;4.694;2023-08-12T04:04:36;21.50;99.90
8824;DHT22;4448;50.904;4.694;2023-08-12T04:07:01;22.10;99.90
8824;DHT22;4448;50.904;4.694;2023-08-12T04:09:27;21.50;99.90
8824;DHT22;4448;50.904;4.694;2023-08-12T04:11:53;21.50;99.90
8824;DHT22;4448;50.904;4.694;2023-08-12T04:14:18;21.50;99.90
8824;DHT22;4448;50.904;4.694;2023-08-12T04:16:44;21.40;99.90
8824;DHT22;4448;50.904;4.694;2023-08-12T04:19:10;21.50;99.90
8824;DHT22;4448;50.904;4.694;2023-08-12T04:21:35;21.50;99.90
8824;DHT22;4448;50.904;4.694;2023-08-12T04:24:01;21.40;99.90
8824;DHT22;4448;50.904;4.694;2023-08-12T04:26:27;21.40;99.90
8824;DHT22;4448;50.904;4.694;2023-08-12T04:28:53;21.40;99.90
8824;DHT22;4448;50.904;4.694;2023-08-12T04:31:19;21.40;99.90
8824;DHT22;4448;50.904;4.694;2023-08-12T04:33:44;21.40;99.90
8824;DHT22;4448;50.904;4.694;2023-08-12T04:36:10;21.40;99.90
8824;DHT22;4448;50.904;4.694;2023-08-12T04:38:36;21.40;99.90
8824;DHT22;4448;50.904;4.694;2023-08-12T04:41:02;21.40;99.90
8824;DHT22;4448;50.904;4.694;2023-08-12T04:43:27;21.40;99.90
8824;DHT22;4448;50.904;4.694;2023-08-12T04:45:53;21.30;99.90
8824;DHT22;4448;50.904;4.694;2023-08-12T04:48:19;21.40;99.90
8824;DHT22;4448;50.904;4.694;2023-08-12T04:50:45;21.40;99.90
8824;DHT22;4448;50.904;4.694;2023-08-12T04:53:10;21.30;99.90
8824;DHT22;4448;50.904;4.694;2023-08-12T04:55:36;21.30;99.90
8824;DHT22;4448;50.904;4.694;2023-08-12T04:58:03;21.40;99.90
8824;DHT22;4448;50.904;4.694;2023-08-12T05:00:29;21.30;99.90
8824;DHT22;4448;50.904;4.694;2023-08-12T05:02:55;21.30;99.90
8824;DHT22;4448;50.904;4.694;2023-08-12T05:05:21;21.30;99.90
8824;DHT22;4448;50.904;4.694;2023-08-12T05:07:46;21.40;99.90
8824;DHT22;4448;50.904;4.694;2023-08-12T05:10:15;21.40;99.90
8824;DHT22;4448;50.904;4.694;2023-08-12T05:12:42;21.30;99.90
8824;DHT22;4448;50.904;4.694;2023-08-12T05:15:09;21.40;99.90
8824;DHT22;4448;50.904;4.694;2023-08-12T05:17:35;21.70;99.90
8824;DHT22;4448;50.904;4.694;2023-08-12T05:20:02;21.30;99.90
8824;DHT22;4448;50.904;4.694;2023-08-12T05:22:28;21.30;99.90
8824;DHT22;4448;50.904;4.694;2023-08-12T05:24:54;21.30;99.90
8824;DHT22;4448;50.904;4.694;2023-08-12T05:27:19;21.30;99.90
8824;DHT22;4448;50.904;4.694;2023-08-12T05:29:45;21.30;99.90
8824;DHT22;4448;50.904;4.694;2023-08-12T05:32:11;21.30;99.90
8824;DHT22;4448;50.904;4.694;2023-08-12T05:34:36;21.30;99.90
8824;DHT22;4448;50.904;4.694;2023-08-12T05:37:02;21.30;99.90
8824;DHT22;4448;50.904;4.694;2023-08-12T05:39:28;21.30;99.90
8824;DHT22;4448;50.904;4.694;2023-08-12T05:41:53;21.30;99.90
8824;DHT22;4448;50.904;4.694;2023-08-12T05:44:19;21.30;99.90
8824;DHT22;4448;50.904;4.694;2023-08-12T05:46:45;21.30;99.90
8824;DHT22;4448;50.904;4.694;2023-08-12T05:49:11;21.30;99.90
8824;DHT22;4448;50.904;4.694;2023-08-12T05:51:37;21.20;99.90
8824;DHT22;4448;50.904;4.694;2023-08-12T05:54:04;21.30;99.90
8824;DHT22;4448;50.904;4.694;2023-08-12T05:56:30;21.30;99.90
8824;DHT22;4448;50.904;4.694;2023-08-12T05:58:55;21.20;99.90
8824;DHT22;4448;50.904;4.694;2023-08-12T06:01:21;21.30;99.90
8824;DHT22;4448;50.904;4.694;2023-08-12T06:03:47;21.30;99.90
8824;DHT22;4448;50.904;4.694;2023-08-12T06:06:12;21.30;99.90
8824;DHT22;4448;50.904;4.694;2023-08-12T06:08:38;21.30;99.90
8824;DHT22;4448;50.904;4.694;2023-08-12T06:11:04;21.20;99.90
8824;DHT22;4448;50.904;4.694;2023-08-12T06:13:29;21.20;99.90
8824;DHT22;4448;50.904;4.694;2023-08-12T06:15:55;21.30;99.90
8824;DHT22;4448;50.904;4.694;2023-08-12T06:18:21;21.30;99.90
8824;DHT22;4448;50.904;4.694;2023-08-12T06:20:46;21.20;99.90
8824;DHT22;4448;50.904;4.694;2023-08-12T06:23:12;21.30;99.90
8824;DHT22;4448;50.904;4.694;2023-08-12T06:25:38;21.20;99.90
8824;DHT22;4448;50.904;4.694;2023-08-12T06:28:04;21.30;99.90
8824;DHT22;4448;50.904;4.694;2023-08-12T06:30:30;21.20;99.90
8824;DHT22;4448;50.904;4.694;2023-08-12T06:32:56;21.30;99.90
8824;DHT22;4448;50.904;4.694;2023-08-12T06:35:21;21.20;99.90
8824;DHT22;4448;50.904;4.694;2023-08-12T06:37:47;21.40;99.90
8824;DHT22;4448;50.904;4.694;2023-08-12T06:40:13;21.40;99.90
8824;DHT22;4448;50.904;4.694;2023-08-12T06:42:38;21.30;99.90
8824;DHT22;4448;50.904;4.694;2023-08-12T06:45:05;21.30;99.90
8824;DHT22;4448;50.904;4.694;2023-08-12T06:47:31;21.30;99.90
8824;DHT22;4448;50.904;4.694;2023-08-12T06:49:56;21.00;99.90
8824;DHT22;4448;50.904;4.694;2023-08-12T06:52:22;21.30;99.90
8824;DHT22;4448;50.904;4.694;2023-08-12T06:54:48;21.30;99.90
8824;DHT22;4448;50.904;4.694;2023-08-12T06:57:14;21.30;99.90
8824;DHT22;4448;50.904;4.694;2023-08-12T06:59:39;20.80;99.90
8824;DHT22;4448;50.904;4.694;2023-08-12T07:02:06;21.30;99.90
8824;DHT22;4448;50.904;4.694;2023-08-12T07:04:32;21.30;99.90
8824;DHT22;4448;50.904;4.694;2023-08-12T07:06:59;21.40;99.90
8824;DHT22;4448;50.904;4.694;2023-08-12T07:09:25;21.40;99.90
8824;DHT22;4448;50.904;4.694;2023-08-12T07:14:16;21.40;99.90
8824;DHT22;4448;50.904;4.694;2023-08-12T07:16:42;21.40;99.90
8824;DHT22;4448;50.904;4.694;2023-08-12T07:19:08;22.00;99.90
8824;DHT22;4448;50.904;4.694;2023-08-12T07:21:33;21.40;99.90
8824;DHT22;4448;50.904;4.694;2023-08-12T07:23:59;21.40;99.90
8824;DHT22;4448;50.904;4.694;2023-08-12T07:26:25;21.40;99.90
8824;DHT22;4448;50.904;4.694;2023-08-12T07:28:51;21.40;99.90
8824;DHT22;4448;50.904;4.694;2023-08-12T07:31:18;21.40;99.90
8824;DHT22;4448;50.904;4.694;2023-08-12T07:33:43;21.40;99.90
8824;DHT22;4448;50.904;4.694;2023-08-12T07:36:09;21.50;99.90
8824;DHT22;4448;50.904;4.694;2023-08-12T07:38:35;21.50;99.90
8824;DHT22;4448;50.904;4.694;2023-08-12T07:41:00;21.50;99.90
8824;DHT22;4448;50.904;4.694;2023-08-12T07:43:26;21.50;99.90
8824;DHT22;4448;50.904;4.694;2023-08-12T07:45:53;21.50;99.90
8824;DHT22;4448;50.904;4.694;2023-08-12T07:48:22;21.50;99.90
8824;DHT22;4448;50.904;4.694;2023-08-12T07:50:54;21.50;99.90
8824;DHT22;4448;50.904;4.694;2023-08-12T07:53:20;21.50;99.90
8824;DHT22;4448;50.904;4.694;2023-08-12T07:55:46;21.50;99.90
8824;DHT22;4448;50.904;4.694;2023-08-12T07:58:12;21.50;99.90
8824;DHT22;4448;50.904;4.694;2023-08-12T08:00:38;21.50;99.90
8824;DHT22;4448;50.904;4.694;2023-08-12T08:05:30;21.40;99.90
8824;DHT22;4448;50.904;4.694;2023-08-12T08:10:22;21.50;99.90
8824;DHT22;4448;50.904;4.694;2023-08-12T08:15:14;21.50;99.90
8824;DHT22;4448;50.904;4.694;2023-08-12T08:17:39;21.50;99.90
8824;DHT22;4448;50.904;4.694;2023-08-12T08:20:05;21.50;99.90
8824;DHT22;4448;50.904;4.694;2023-08-12T08:22:32;21.60;99.90
8824;DHT22;4448;50.904;4.694;2023-08-12T08:24:58;21.50;99.90
8824;DHT22;4448;50.904;4.694;2023-08-12T08:27:24;21.60;99.90
8824;DHT22;4448;50.904;4.694;2023-08-12T08:29:50;21.50;99.90
8824;DHT22;4448;50.904;4.694;2023-08-12T08:32:15;21.50;99.90
8824;DHT22;4448;50.904;4.694;2023-08-12T08:34:42;21.60;99.90
8824;DHT22;4448;50.904;4.694;2023-08-12T08:37:08;21.60;99.90
8824;DHT22;4448;50.904;4.694;2023-08-12T08:39:34;21.60;99.90
8824;DHT22;4448;50.904;4.694;2023-08-12T08:41:59;21.60;99.90
8824;DHT22;4448;50.904;4.694;2023-08-12T08:44:29;21.50;99.90
8824;DHT22;4448;50.904;4.694;2023-08-12T08:46:57;21.60;99.90
8824;DHT22;4448;50.904;4.694;2023-08-12T08:49:24;21.00;99.90
8824;DHT22;4448;50.904;4.694;2023-08-12T08:51:51;21.70;99.90
8824;DHT22;4448;50.904;4.694;2023-08-12T08:54:19;21.70;99.90
8824;DHT22;4448;50.904;4.694;2023-08-12T08:56:45;21.80;99.90
8824;DHT22;4448;50.904;4.694;2023-08-12T08:59:11;21.80;99.90
8824;DHT22;4448;50.904;4.694;2023-08-12T09:01:37;21.80;99.90
8824;DHT22;4448;50.904;4.694;2023-08-12T09:04:03;21.80;99.90
8824;DHT22;4448;50.904;4.694;2023-08-12T09:06:31;21.80;99.90
8824;DHT22;4448;50.904;4.694;2023-08-12T09:08:59;21.90;99.90
8824;DHT22;4448;50.904;4.694;2023-08-12T09:11:26;21.90;99.90
8824;DHT22;4448;50.904;4.694;2023-08-12T09:13:52;21.90;99.90
8824;DHT22;4448;50.904;4.694;2023-08-12T09:16:18;21.90;99.90
8824;DHT22;4448;50.904;4.694;2023-08-12T09:18:44;21.90;99.90
8824;DHT22;4448;50.904;4.694;2023-08-12T09:21:10;22.00;99.90
8824;DHT22;4448;50.904;4.694;2023-08-12T09:23:40;21.90;99.90
8824;DHT22;4448;50.904;4.694;2023-08-12T09:26:20;21.90;99.90
8824;DHT22;4448;50.904;4.694;2023-08-12T09:28:47;21.90;99.90
8824;DHT22;4448;50.904;4.694;2023-08-12T09:31:26;22.00;99.90
8824;DHT22;4448;50.904;4.694;2023-08-12T09:33:52;22.00;99.90
8824;DHT22;4448;50.904;4.694;2023-08-12T09:36:20;22.00;99.90
8824;DHT22;4448;50.904;4.694;2023-08-12T09:38:46;21.90;99.90
8824;DHT22;4448;50.904;4.694;2023-08-12T09:41:12;21.90;99.90
8824;DHT22;4448;50.904;4.694;2023-08-12T09:43:45;21.90;99.90
8824;DHT22;4448;50.904;4.694;2023-08-12T09:46:11;21.90;99.90
8824;DHT22;4448;50.904;4.694;2023-08-12T09:48:40;21.90;99.90
8824;DHT22;4448;50.904;4.694;2023-08-12T09:51:07;22.10;99.90
8824;DHT22;4448;50.904;4.694;2023-08-12T09:53:33;22.00;99.90
8824;DHT22;4448;50.904;4.694;2023-08-12T09:58:48;22.10;99.90
8824;DHT22;4448;50.904;4.694;2023-08-12T10:01:14;22.00;99.90
8824;DHT22;4448;50.904;4.694;2023-08-12T10:03:43;22.00;99.90
8824;DHT22;4448;50.904;4.694;2023-08-12T10:06:12;22.00;99.90
8824;DHT22;4448;50.904;4.694;2023-08-12T10:08:38;22.00;99.90
8824;DHT22;4448;50.904;4.694;2023-08-12T10:11:04;22.00;99.90
8824;DHT22;4448;50.904;4.694;2023-08-12T10:13:30;22.00;99.90
8824;DHT22;4448;50.904;4.694;2023-08-12T10:15:55;21.90;99.90
8824;DHT22;4448;50.904;4.694;2023-08-12T10:18:22;21.90;99.90
8824;DHT22;4448;50.904;4.694;2023-08-12T10:20:50;21.60;99.90
8824;DHT22;4448;50.904;4.694;2023-08-12T10:23:17;21.90;99.90
8824;DHT22;4448;50.904;4.694;2023-08-12T10:25:44;21.90;99.90
8824;DHT22;4448;50.904;4.694;2023-08-12T10:28:11;21.90;99.90
8824;DHT22;4448;50.904;4.694;2023-08-12T10:30:40;22.10;99.90
8824;DHT22;4448;50.904;4.694;2023-08-12T10:33:07;22.00;99.90
8824;DHT22;4448;50.904;4.694;2023-08-12T10:35:44;22.00;99.90
8824;DHT22;4448;50.904;4.694;2023-08-12T10:38:17;21.90;99.90
8824;DHT22;4448;50.904;4.694;2023-08-12T10:40:43;21.60;99.90
8824;DHT22;4448;50.904;4.694;2023-08-12T10:43:09;21.90;99.90
8824;DHT22;4448;50.904;4.694;2023-08-12T10:48:21;21.90;99.90
8824;DHT22;4448;50.904;4.694;2023-08-12T10:50:55;21.80;99.90
8824;DHT22;4448;50.904;4.694;2023-08-12T10:53:23;21.90;99.90
8824;DHT22;4448;50.904;4.694;2023-08-12T10:56:01;21.80;99.90
8824;DHT22;4448;50.904;4.694;2023-08-12T10:58:37;22.00;99.90
8824;DHT22;4448;50.904;4.694;2023-08-12T11:01:13;22.00;99.90
8824;DHT22;4448;50.904;4.694;2023-08-12T11:03:42;22.10;99.90
8824;DHT22;4448;50.904;4.694;2023-08-12T11:06:10;22.40;99.90
8824;DHT22;4448;50.904;4.694;2023-08-12T11:08:36;22.30;99.90
8824;DHT22;4448;50.904;4.694;2023-08-12T11:11:02;22.40;99.90
8824;DHT22;4448;50.904;4.694;2023-08-12T11:13:28;22.50;99.90
8824;DHT22;4448;50.904;4.694;2023-08-12T11:16:06;22.60;99.90
8824;DHT22;4448;50.904;4.694;2023-08-12T11:18:33;22.60;99.90
8824;DHT22;4448;50.904;4.694;2023-08-12T11:20:58;22.80;99.90
8824;DHT22;4448;50.904;4.694;2023-08-12T11:23:25;22.90;99.90
8824;DHT22;4448;50.904;4.694;2023-08-12T11:25:51;23.00;99.90
8824;DHT22;4448;50.904;4.694;2023-08-12T11:28:18;22.90;99.90
8824;DHT22;4448;50.904;4.694;2023-08-12T11:30:46;23.30;99.90
8824;DHT22;4448;50.904;4.694;2023-08-12T11:33:12;23.50;99.90
8824;DHT22;4448;50.904;4.694;2023-08-12T11:35:38;23.70;99.90
8824;DHT22;4448;50.904;4.694;2023-08-12T11:38:05;23.80;99.90
8824;DHT22;4448;50.904;4.694;2023-08-12T11:40:32;24.10;99.90
8824;DHT22;4448;50.904;4.694;2023-08-12T11:42:57;24.10;99.90
8824;DHT22;4448;50.904;4.694;2023-08-12T11:45:24;24.40;99.90
8824;DHT22;4448;50.904;4.694;2023-08-12T11:47:51;24.60;99.90
8824;DHT22;4448;50.904;4.694;2023-08-12T11:50:21;24.90;99.90
8824;DHT22;4448;50.904;4.694;2023-08-12T11:52:48;25.10;99.90
8824;DHT22;4448;50.904;4.694;2023-08-12T11:55:14;25.30;99.90
8824;DHT22;4448;50.904;4.694;2023-08-12T11:57:40;25.40;99.90
8824;DHT22;4448;50.904;4.694;2023-08-12T12:00:08;25.50;99.90
8824;DHT22;4448;50.904;4.694;2023-08-12T12:02:39;25.50;99.90
8824;DHT22;4448;50.904;4.694;2023-08-12T12:05:13;25.60;99.90
8824;DHT22;4448;50.904;4.694;2023-08-12T12:07:39;25.80;99.90
8824;DHT22;4448;50.904;4.694;2023-08-12T12:10:06;25.90;99.90
8824;DHT22;4448;50.904;4.694;2023-08-12T12:12:36;25.70;99.90
8824;DHT22;4448;50.904;4.694;2023-08-12T12:15:03;25.70;99.90
8824;DHT22;4448;50.904;4.694;2023-08-12T12:17:29;25.80;99.90
8824;DHT22;4448;50.904;4.694;2023-08-12T12:19:56;25.70;99.90
8824;DHT22;4448;50.904;4.694;2023-08-12T12:22:28;25.40;99.90
8824;DHT22;4448;50.904;4.694;2023-08-12T12:24:54;25.40;99.90
8824;DHT22;4448;50.904;4.694;2023-08-12T12:27:19;25.50;99.90
8824;DHT22;4448;50.904;4.694;2023-08-12T12:29:45;25.80;99.90
8824;DHT22;4448;50.904;4.694;2023-08-12T12:32:11;25.80;99.90
8824;DHT22;4448;50.904;4.694;2023-08-12T12:34:37;26.30;99.90
8824;DHT22;4448;50.904;4.694;2023-08-12T12:37:03;26.50;99.90
8824;DHT22;4448;50.904;4.694;2023-08-12T12:39:29;26.50;99.90
8824;DHT22;4448;50.904;4.694;2023-08-12T12:41:54;26.40;99.90
8824;DHT22;4448;50.904;4.694;2023-08-12T12:44:20;26.60;99.90
8824;DHT22;4448;50.904;4.694;2023-08-12T12:46:46;26.30;99.90
8824;DHT22;4448;50.904;4.694;2023-08-12T12:49:11;26.50;99.90
8824;DHT22;4448;50.904;4.694;2023-08-12T12:51:37;26.60;99.90
8824;DHT22;4448;50.904;4.694;2023-08-12T12:54:03;26.60;99.90
8824;DHT22;4448;50.904;4.694;2023-08-12T12:56:28;26.60;99.90
8824;DHT22;4448;50.904;4.694;2023-08-12T12:58:54;26.60;99.90
8824;DHT22;4448;50.904;4.694;2023-08-12T13:01:20;26.70;99.90
8824;DHT22;4448;50.904;4.694;2023-08-12T13:03:45;27.00;99.90
8824;DHT22;4448;50.904;4.694;2023-08-12T13:06:11;26.80;99.90
8824;DHT22;4448;50.904;4.694;2023-08-12T13:08:37;26.50;99.90
8824;DHT22;4448;50.904;4.694;2023-08-12T13:11:02;26.40;99.90
8824;DHT22;4448;50.904;4.694;2023-08-12T13:13:28;26.60;99.90
8824;DHT22;4448;50.904;4.694;2023-08-12T13:15:54;26.30;99.90
8824;DHT22;4448;50.904;4.694;2023-08-12T13:18:19;26.30;99.90
8824;DHT22;4448;50.904;4.694;2023-08-12T13:20:45;26.30;99.90
8824;DHT22;4448;50.904;4.694;2023-08-12T13:23:11;26.20;99.90
8824;DHT22;4448;50.904;4.694;2023-08-12T13:25:37;26.40;99.90
8824;DHT22;4448;50.904;4.694;2023-08-12T13:28:03;26.30;99.90
8824;DHT22;4448;50.904;4.694;2023-08-12T13:30:30;26.20;99.90
8824;DHT22;4448;50.904;4.694;2023-08-12T13:32:56;26.30;99.90
8824;DHT22;4448;50.904;4.694;2023-08-12T13:35:22;26.50;99.90
8824;DHT22;4448;50.904;4.694;2023-08-12T13:37:51;26.70;99.90
8824;DHT22;4448;50.904;4.694;2023-08-12T13:40:18;26.10;99.90
8824;DHT22;4448;50.904;4.694;2023-08-12T13:42:43;26.10;99.90
8824;DHT22;4448;50.904;4.694;2023-08-12T13:45:11;26.40;99.90
8824;DHT22;4448;50.904;4.694;2023-08-12T13:47:37;26.40;99.90
8824;DHT22;4448;50.904;4.694;2023-08-12T13:50:03;26.20;99.90
8824;DHT22;4448;50.904;4.694;2023-08-12T13:52:29;26.40;99.90
8824;DHT22;4448;50.904;4.694;2023-08-12T13:54:54;27.00;99.90
8824;DHT22;4448;50.904;4.694;2023-08-12T13:57:20;26.10;99.90
8824;DHT22;4448;50.904;4.694;2023-08-12T13:59:46;26.10;99.90
8824;DHT22;4448;50.904;4.694;2023-08-12T14:02:13;25.70;99.90
8824;DHT22;4448;50.904;4.694;2023-08-12T14:04:39;26.20;99.90
8824;DHT22;4448;50.904;4.694;2023-08-12T14:07:05;25.70;99.90
8824;DHT22;4448;50.904;4.694;2023-08-12T14:09:31;26.10;99.90
8824;DHT22;4448;50.904;4.694;2023-08-12T14:11:57;26.40;99.90
8824;DHT22;4448;50.904;4.694;2023-08-12T14:14:24;26.60;99.90
8824;DHT22;4448;50.904;4.694;2023-08-12T14:16:50;26.20;99.90
8824;DHT22;4448;50.904;4.694;2023-08-12T14:19:16;26.10;99.90
8824;DHT22;4448;50.904;4.694;2023-08-12T14:21:43;26.70;99.90
8824;DHT22;4448;50.904;4.694;2023-08-12T14:24:08;25.80;99.90
8824;DHT22;4448;50.904;4.694;2023-08-12T14:26:35;26.30;99.90
8824;DHT22;4448;50.904;4.694;2023-08-12T14:29:01;25.80;99.90
8824;DHT22;4448;50.904;4.694;2023-08-12T14:31:27;25.70;99.90
8824;DHT22;4448;50.904;4.694;2023-08-12T14:33:52;26.10;99.90
8824;DHT22;4448;50.904;4.694;2023-08-12T14:36:18;26.20;99.90
8824;DHT22;4448;50.904;4.694;2023-08-12T14:38:44;25.90;99.90
8824;DHT22;4448;50.904;4.694;2023-08-12T14:41:10;26.00;99.90
8824;DHT22;4448;50.904;4.694;2023-08-12T14:43:36;26.00;99.90
8824;DHT22;4448;50.904;4.694;2023-08-12T14:46:02;25.80;99.90
8824;DHT22;4448;50.904;4.694;2023-08-12T14:48:28;25.80;99.90
8824;DHT22;4448;50.904;4.694;2023-08-12T14:50:57;25.80;99.90
8824;DHT22;4448;50.904;4.694;2023-08-12T14:53:24;25.70;99.90
8824;DHT22;4448;50.904;4.694;2023-08-12T14:55:53;25.70;99.90
8824;DHT22;4448;50.904;4.694;2023-08-12T14:58:21;25.80;99.90
8824;DHT22;4448;50.904;4.694;2023-08-12T15:00:49;25.50;99.90
8824;DHT22;4448;50.904;4.694;2023-08-12T15:03:15;25.60;99.90
8824;DHT22;4448;50.904;4.694;2023-08-12T15:05:41;25.70;99.90
8824;DHT22;4448;50.904;4.694;2023-08-12T15:08:07;25.60;99.90
8824;DHT22;4448;50.904;4.694;2023-08-12T15:10:33;25.70;99.90
8824;DHT22;4448;50.904;4.694;2023-08-12T15:12:59;25.50;99.90
8824;DHT22;4448;50.904;4.694;2023-08-12T15:15:25;25.50;99.90
8824;DHT22;4448;50.904;4.694;2023-08-12T15:17:50;25.40;99.90
8824;DHT22;4448;50.904;4.694;2023-08-12T15:20:17;25.40;99.90
8824;DHT22;4448;50.904;4.694;2023-08-12T15:22:43;25.40;99.90
8824;DHT22;4448;50.904;4.694;2023-08-12T15:25:09;25.50;99.90
8824;DHT22;4448;50.904;4.694;2023-08-12T15:27:34;25.40;99.90
8824;DHT22;4448;50.904;4.694;2023-08-12T15:30:00;25.20;99.90
8824;DHT22;4448;50.904;4.694;2023-08-12T15:32:26;25.20;99.90
8824;DHT22;4448;50.904;4.694;2023-08-12T15:34:52;25.30;99.90
8824;DHT22;4448;50.904;4.694;2023-08-12T15:37:18;25.40;99.90
8824;DHT22;4448;50.904;4.694;2023-08-12T15:39:46;25.30;99.90
8824;DHT22;4448;50.904;4.694;2023-08-12T15:42:14;25.20;99.90
8824;DHT22;4448;50.904;4.694;2023-08-12T15:44:42;25.10;99.90
8824;DHT22;4448;50.904;4.694;2023-08-12T15:47:08;25.10;99.90
8824;DHT22;4448;50.904;4.694;2023-08-12T15:49:34;25.00;99.90
8824;DHT22;4448;50.904;4.694;2023-08-12T15:52:00;25.00;99.90
8824;DHT22;4448;50.904;4.694;2023-08-12T15:54:26;24.60;99.90
8824;DHT22;4448;50.904;4.694;2023-08-12T15:56:52;24.90;99.90
8824;DHT22;4448;50.904;4.694;2023-08-12T15:59:18;25.10;99.90
8824;DHT22;4448;50.904;4.694;2023-08-12T16:01:43;24.90;99.90
8824;DHT22;4448;50.904;4.694;2023-08-12T16:04:09;24.90;99.90
8824;DHT22;4448;50.904;4.694;2023-08-12T16:06:35;24.90;99.90
8824;DHT22;4448;50.904;4.694;2023-08-12T16:09:01;24.80;99.90
8824;DHT22;4448;50.904;4.694;2023-08-12T16:11:26;24.80;99.90
8824;DHT22;4448;50.904;4.694;2023-08-12T16:13:52;24.90;99.90
8824;DHT22;4448;50.904;4.694;2023-08-12T16:16:18;24.70;99.90